ENVAENML

Guest
Details From ENVA - Vaernes
To ENML - Molde Aro
Flight Number -
Tags generated
Created
Modified
Stats Distance 108 nm / 200 km
Max Altitude 1,600 ft / 488 m
Waypoints 3
Social Downloads 2
Likes 0
Share VATSIM

Download

Looking for another format? Having issues loading an existing format? Contact us
Advertisement - Login to hide

Notes

Basic altitude profile: - Ascent Rate: 2500ft/min - Ascent Speed: 250kts - Cruise Altitude: 35000ft - Cruise Speed: 420kts - Descent Rate: 1500ft/min - Descent Speed: 250kts Options: - Use NATs: yes - Use PACOTS: yes - Use low airways: yes - Use high airways: yes

Route

ENVA VAGSI ENML

ID Type Via Altitude (ft/m) Position (lat/lon) Dist (leg/tot) Name
O ENVA APT - 0 / 0 63.45760 / 10.91798 - / 0 nm Vaernes
VAGSI FIX - 1,600 / 488 62.81111 / 7.50000 100 / 100 nm
O ENML APT - 0 / 0 62.74557 / 7.26748 7 / 108 nm Molde Aro

Altitude Profile

Advertisement - Login to hide

ENVA

Details ICAO ENVA (TRD)
Name Trondheim Vaernes
Region Norway
Timezone Europe/Oslo (UTC+2.0)
Stats Elevation 56 ft / 17 m (AMSL)
Location 63.457500° 10.924200°
Runways 1
Magnetic Variation 3.758° E

METAR

ENVA 252120Z 08010KT 040V110 CAVOK 15/M00 Q1017 RMK WIND 670FT 12009KT

Decode

TAF

TAF ENVA 251700Z 2518/2618 12008KT CAVOK TEMPO 2518/2524 15018G28KT

Decode

Departure Runways

ID Width Length Bearing (true/mag) Surface Threshold Overrun Markings Lighting
09 148 ft / 45 m 9,744 ft / 2,970 m 90.18° / 86.43° ASPHALT 830 ft / 253 m 0 ft / 0 m PREC-APP CENTERLINE EDGE THRESHOLD CALVERT REIL-OMNI
27 148 ft / 45 m 9,744 ft / 2,970 m 270.24° / 266.48° ASPHALT 745 ft / 227 m 0 ft / 0 m PREC-APP CENTERLINE EDGE THRESHOLD CALVERT REIL-OMNI

ENML

Details ICAO ENML (MOL)
Name Molde Aro
Region Norway
Timezone Europe/Oslo (UTC+2.0)
Stats Elevation 9 ft / 3 m (AMSL)
Location 62.745500° 7.267140°
Runways 1
Magnetic Variation 1.976° E

METAR

ENML 252120Z AUTO 04006KT 9999NDV OVC098/// 15/05 Q1013

Decode

TAF

Not found

Destination Runways

ID Width Length Bearing (true/mag) Surface Threshold Overrun Markings Lighting
07 148 ft / 45 m 7,290 ft / 2,222 m 70.97° / 68.99° ASPHALT 482 ft / 147 m 0 ft / 0 m PREC-APP CENTERLINE EDGE THRESHOLD CALVERT
25 148 ft / 45 m 7,290 ft / 2,222 m 251.00° / 249.03° ASPHALT 322 ft / 98 m 0 ft / 0 m PREC-APP CENTERLINE EDGE THRESHOLD CALVERT

Approach Navaids

Runway Type Ident Frequency Range Bearing (true/mag) Slope Elevation
07 LOC-ILS ML 109.75 MHz 18 nm / 33 km 70.99° / 69.01 ° - 9 ft / 3 m (AMSL)
07 GS ML 109.75 MHz 10 nm / 19 km 70.99° / 69.01 ° 3.10° 9 ft / 3 m (AMSL)

Popular Alternatives